createdAt,value
2018-09-29T00:00:06.790Z,7.71
2018-09-29T00:02:35.608Z,7.42
2018-09-29T00:05:04.528Z,7.38
2018-09-29T00:07:33.318Z,7.33
2018-09-29T00:10:02.228Z,7.18
2018-09-29T00:12:31.013Z,7.09
2018-09-29T00:14:59.830Z,7.07
2018-09-29T00:17:28.685Z,7.01
2018-09-29T00:19:57.507Z,6.96
2018-09-29T00:22:26.364Z,6.92
2018-09-29T00:24:55.203Z,6.88
2018-09-29T00:27:24.032Z,6.86
2018-09-29T00:29:52.857Z,6.79
2018-09-29T00:32:21.690Z,6.64
2018-09-29T00:34:50.512Z,6.60
2018-09-29T00:37:19.417Z,6.55
2018-09-29T00:39:48.314Z,6.59
2018-09-29T00:42:17.204Z,6.88
2018-09-29T00:44:46.094Z,6.62
2018-09-29T00:47:14.915Z,6.60
2018-09-29T00:49:43.755Z,6.59
2018-09-29T00:52:12.606Z,6.59
2018-09-29T00:54:41.438Z,6.57
2018-09-29T00:57:10.287Z,6.49
2018-09-29T00:59:39.129Z,6.80
2018-09-29T01:02:07.936Z,6.50
2018-09-29T01:04:36.780Z,6.77
2018-09-29T01:07:05.624Z,6.42
2018-09-29T01:09:34.471Z,6.36
2018-09-29T01:12:03.279Z,6.26
2018-09-29T01:14:32.084Z,6.23
2018-09-29T01:17:00.961Z,6.27
2018-09-29T01:19:29.825Z,6.13
2018-09-29T01:21:58.624Z,6.49
2018-09-29T01:24:27.466Z,6.17
2018-09-29T01:26:56.311Z,6.47
2018-09-29T01:29:25.119Z,6.18
2018-09-29T01:31:54.010Z,6.46
2018-09-29T01:34:22.861Z,6.17
2018-09-29T01:36:51.675Z,6.11
2018-09-29T01:39:20.488Z,6.04
2018-09-29T01:41:49.338Z,5.97
2018-09-29T01:44:18.138Z,5.93
2018-09-29T01:46:46.965Z,5.91
2018-09-29T01:49:15.765Z,5.87
2018-09-29T01:51:44.599Z,5.90
2018-09-29T01:54:13.459Z,5.73
2018-09-29T01:56:42.279Z,6.05
2018-09-29T01:59:11.110Z,5.68
2018-09-29T02:01:39.951Z,6.09
2018-09-29T02:04:08.752Z,5.75
2018-09-29T02:06:37.611Z,5.65
2018-09-29T02:09:07.284Z,5.71
2018-09-29T02:11:36.114Z,5.65
2018-09-29T02:14:05.332Z,5.53
2018-09-29T02:16:34.383Z,5.38
2018-09-29T02:19:03.208Z,5.35
2018-09-29T02:21:32.020Z,5.37
2018-09-29T02:24:00.845Z,5.37
2018-09-29T02:26:29.698Z,5.30
2018-09-29T02:28:58.581Z,5.27
2018-09-29T02:31:27.489Z,5.17
2018-09-29T02:33:56.296Z,5.23
2018-09-29T02:36:25.123Z,5.25
2018-09-29T02:38:53.952Z,5.16
2018-09-29T02:41:22.811Z,5.06
2018-09-29T02:43:51.672Z,5.12
2018-09-29T02:46:20.502Z,5.09
2018-09-29T02:48:49.322Z,5.08
2018-09-29T02:51:18.167Z,5.10
2018-09-29T02:53:46.980Z,5.11
2018-09-29T02:56:15.806Z,5.10
2018-09-29T02:58:44.633Z,5.11
2018-09-29T03:01:13.457Z,5.05
2018-09-29T03:03:42.314Z,5.11
2018-09-29T03:06:11.161Z,5.44
2018-09-29T03:08:40.005Z,5.16
2018-09-29T03:11:08.834Z,5.11
2018-09-29T03:13:37.739Z,5.06
2018-09-29T03:16:06.576Z,5.07
2018-09-29T03:18:35.475Z,4.97
2018-09-29T03:21:04.297Z,4.92
2018-09-29T03:23:33.141Z,5.00
2018-09-29T03:26:01.971Z,4.95
2018-09-29T03:28:30.814Z,4.87
2018-09-29T03:30:59.643Z,4.79
2018-09-29T03:33:28.484Z,4.85
2018-09-29T03:35:57.370Z,4.85
2018-09-29T03:38:26.215Z,4.83
2018-09-29T03:40:55.088Z,4.81
2018-09-29T03:43:23.894Z,4.81
2018-09-29T03:45:52.729Z,4.73
2018-09-29T03:48:21.552Z,4.71
2018-09-29T03:50:50.366Z,4.68
2018-09-29T03:53:19.267Z,4.67
2018-09-29T03:55:48.144Z,4.61
2018-09-29T03:58:16.949Z,4.62
2018-09-29T04:00:45.823Z,4.63
2018-09-29T04:03:14.637Z,4.59
2018-09-29T04:05:43.490Z,4.59
2018-09-29T04:08:12.321Z,4.57
2018-09-29T04:10:41.160Z,4.59
2018-09-29T04:13:09.962Z,4.48
2018-09-29T04:15:38.766Z,4.83
2018-09-29T04:18:07.627Z,4.56
2018-09-29T04:20:36.434Z,4.50
2018-09-29T04:23:05.256Z,4.50
2018-09-29T04:25:34.173Z,4.36
2018-09-29T04:28:03.041Z,4.35
2018-09-29T04:30:31.921Z,4.35
2018-09-29T04:33:00.767Z,4.37
2018-09-29T04:35:29.582Z,4.44
2018-09-29T04:37:58.467Z,4.34
2018-09-29T04:40:27.382Z,4.33
2018-09-29T04:42:56.238Z,4.35
2018-09-29T04:45:25.110Z,4.43
2018-09-29T04:47:53.959Z,4.78
2018-09-29T04:50:22.798Z,4.94
2018-09-29T04:52:51.614Z,4.59
2018-09-29T04:55:20.440Z,4.58
2018-09-29T04:57:49.264Z,4.52
2018-09-29T05:00:18.115Z,4.51
2018-09-29T05:02:46.931Z,4.50
2018-09-29T05:05:15.998Z,4.44
2018-09-29T05:07:44.794Z,4.47
2018-09-29T05:10:13.648Z,4.38
2018-09-29T05:12:42.476Z,4.37
2018-09-29T05:15:11.291Z,4.70
2018-09-29T05:17:40.128Z,4.42
2018-09-29T05:20:08.953Z,4.39
2018-09-29T05:22:37.807Z,4.36
2018-09-29T05:25:06.647Z,4.45
2018-09-29T05:27:35.483Z,4.32
2018-09-29T05:30:04.361Z,4.28
2018-09-29T05:32:33.216Z,4.29
2018-09-29T05:35:02.049Z,4.27
2018-09-29T05:37:30.896Z,4.28
2018-09-29T05:39:59.710Z,4.25
2018-09-29T05:42:28.524Z,4.28
2018-09-29T05:44:57.353Z,4.25
2018-09-29T05:47:26.194Z,4.26
2018-09-29T05:49:55.010Z,4.35
2018-09-29T05:52:23.848Z,4.40
2018-09-29T05:54:52.663Z,4.41
2018-09-29T05:57:21.487Z,4.34
2018-09-29T05:59:50.314Z,4.35
2018-09-29T06:02:19.134Z,4.27
2018-09-29T06:04:47.993Z,4.26
2018-09-29T06:07:16.933Z,4.26
2018-09-29T06:09:45.642Z,4.33
2018-09-29T06:12:14.466Z,4.35
2018-09-29T06:14:43.282Z,4.40
2018-09-29T06:17:12.110Z,4.49
2018-09-29T06:19:40.934Z,4.56
2018-09-29T06:22:09.763Z,4.62
2018-09-29T06:24:38.625Z,4.75
2018-09-29T06:27:07.463Z,4.76
2018-09-29T06:29:36.269Z,4.87
2018-09-29T06:32:05.181Z,5.01
2018-09-29T06:34:34.002Z,5.08
2018-09-29T06:37:02.838Z,5.44
2018-09-29T06:39:31.663Z,5.22
2018-09-29T06:42:00.583Z,5.27
2018-09-29T06:44:29.410Z,5.32
2018-09-29T06:46:58.230Z,5.35
2018-09-29T06:49:27.103Z,5.41
2018-09-29T06:51:55.918Z,5.46
2018-09-29T06:54:24.761Z,5.52
2018-09-29T06:56:53.554Z,5.60
2018-09-29T06:59:22.378Z,5.68
2018-09-29T07:01:51.212Z,5.77
2018-09-29T07:04:20.042Z,5.89
2018-09-29T07:06:48.891Z,6.04
2018-09-29T07:09:17.723Z,6.16
2018-09-29T07:11:46.571Z,6.29
2018-09-29T07:14:15.463Z,6.86
2018-09-29T07:16:44.317Z,6.87
2018-09-29T07:19:13.156Z,7.03
2018-09-29T07:21:42.113Z,7.16
2018-09-29T07:24:10.862Z,7.29
2018-09-29T07:26:39.664Z,7.45
2018-09-29T07:29:08.498Z,7.63
2018-09-29T07:31:37.571Z,7.78
2018-09-29T07:34:06.671Z,7.90
2018-09-29T07:36:35.544Z,8.08
2018-09-29T07:39:05.803Z,8.23
2018-09-29T07:41:34.645Z,8.41
2018-09-29T07:44:03.485Z,8.77
2018-09-29T07:46:32.309Z,9.02
2018-09-29T07:49:01.225Z,9.17
2018-09-29T07:51:30.017Z,9.28
2018-09-29T07:53:58.896Z,9.40
2018-09-29T07:56:27.747Z,9.53
2018-09-29T07:58:56.579Z,9.72
2018-09-29T08:01:25.439Z,9.87
2018-09-29T08:03:54.267Z,10.05
2018-09-29T08:06:23.197Z,10.22
2018-09-29T08:08:51.960Z,10.39
2018-09-29T08:11:20.817Z,10.58
2018-09-29T08:13:49.653Z,11.09
2018-09-29T08:16:18.459Z,11.67
2018-09-29T08:18:47.297Z,11.96
2018-09-29T08:21:16.126Z,12.19
2018-09-29T08:23:44.961Z,12.35
2018-09-29T08:26:13.804Z,12.36
2018-09-29T08:28:42.625Z,12.41
2018-09-29T08:31:11.472Z,12.53
2018-09-29T08:33:40.367Z,13.12
2018-09-29T08:36:09.199Z,13.72
2018-09-29T08:38:38.171Z,13.71
2018-09-29T08:41:07.047Z,13.75
2018-09-29T08:43:35.908Z,13.95
2018-09-29T08:46:04.709Z,13.94
2018-09-29T08:48:33.561Z,13.80
2018-09-29T08:51:02.392Z,13.80
2018-09-29T08:53:31.272Z,13.78
2018-09-29T08:56:00.106Z,13.83
2018-09-29T08:58:28.936Z,14.10
2018-09-29T09:00:57.755Z,15.02
2018-09-29T09:03:26.632Z,15.13
2018-09-29T09:05:55.458Z,15.33
2018-09-29T09:08:24.303Z,15.66
2018-09-29T09:10:53.112Z,15.86
2018-09-29T09:13:21.946Z,16.63
2018-09-29T09:15:50.778Z,16.69
2018-09-29T09:18:19.600Z,16.87
2018-09-29T09:20:48.453Z,16.97
2018-09-29T09:23:17.400Z,16.96
2018-09-29T09:25:46.153Z,16.94
2018-09-29T09:28:15.013Z,17.18
2018-09-29T09:30:43.859Z,17.14
2018-09-29T09:33:12.681Z,17.77
2018-09-29T09:35:41.535Z,17.65
2018-09-29T09:38:10.386Z,17.78
2018-09-29T09:40:39.243Z,17.99
2018-09-29T09:43:08.109Z,18.20
2018-09-29T09:45:36.946Z,18.76
2018-09-29T09:48:05.796Z,20.44
2018-09-29T09:50:35.070Z,22.12
2018-09-29T09:53:03.938Z,23.04
2018-09-29T09:55:32.753Z,22.94
2018-09-29T09:58:01.617Z,23.43
2018-09-29T10:00:48.404Z,24.09
2018-09-29T10:03:33.514Z,24.31
2018-09-29T10:06:02.368Z,24.70
2018-09-29T10:08:31.241Z,25.19
2018-09-29T10:11:00.069Z,24.93
2018-09-29T10:13:28.894Z,24.64
2018-09-29T10:15:57.726Z,24.75
2018-09-29T10:18:26.620Z,25.14
2018-09-29T10:20:55.442Z,25.87
2018-09-29T10:23:24.369Z,26.01
2018-09-29T10:25:53.202Z,26.47
2018-09-29T10:28:22.054Z,26.17
2018-09-29T10:30:50.871Z,25.98
2018-09-29T10:33:19.694Z,25.29
2018-09-29T10:35:48.508Z,26.09
2018-09-29T10:38:17.327Z,25.96
2018-09-29T10:40:46.187Z,25.74
2018-09-29T10:43:15.004Z,26.13
2018-09-29T10:45:43.816Z,25.97
2018-09-29T10:48:12.668Z,25.30
2018-09-29T10:50:41.497Z,24.36
2018-09-29T10:53:10.356Z,25.05
2018-09-29T10:55:39.210Z,24.98
2018-09-29T10:58:08.128Z,24.58
2018-09-29T11:00:36.975Z,24.56
2018-09-29T11:03:05.794Z,26.46
2018-09-29T11:05:34.642Z,26.63
2018-09-29T11:08:03.472Z,25.87
2018-09-29T11:10:32.313Z,26.62
2018-09-29T11:13:01.150Z,25.22
2018-09-29T11:15:29.977Z,24.70
2018-09-29T11:17:58.782Z,24.63
2018-09-29T11:20:27.612Z,24.78
2018-09-29T11:22:56.444Z,24.83
2018-09-29T11:25:25.298Z,25.27
2018-09-29T11:27:54.216Z,25.32
2018-09-29T11:30:22.968Z,24.68
2018-09-29T11:32:51.802Z,23.85
2018-09-29T11:35:20.644Z,23.16
2018-09-29T11:37:49.467Z,23.01
2018-09-29T11:40:18.307Z,22.65
2018-09-29T11:42:47.158Z,22.13
2018-09-29T11:45:16.001Z,21.69
2018-09-29T11:47:44.843Z,21.72
2018-09-29T11:50:13.704Z,21.29
2018-09-29T11:52:42.528Z,21.06
2018-09-29T11:55:11.388Z,20.88
2018-09-29T11:57:40.216Z,20.49
2018-09-29T12:00:09.084Z,19.94
2018-09-29T12:02:37.922Z,20.06
2018-09-29T12:05:06.824Z,19.84
2018-09-29T12:07:35.704Z,19.75
2018-09-29T12:10:04.486Z,19.92
2018-09-29T12:12:33.772Z,19.96
2018-09-29T12:15:02.977Z,19.49
2018-09-29T12:17:35.193Z,19.47
2018-09-29T12:20:04.668Z,19.60
2018-09-29T12:22:34.129Z,19.72
2018-09-29T12:25:05.765Z,19.50
2018-09-29T12:27:34.941Z,19.24
2018-09-29T12:30:09.967Z,19.34
2018-09-29T12:32:41.656Z,19.24
2018-09-29T12:35:10.784Z,19.43
2018-09-29T12:37:40.010Z,19.35
2018-09-29T12:40:09.427Z,19.06
2018-09-29T12:42:38.596Z,19.02
2018-09-29T12:45:07.944Z,18.94
2018-09-29T12:47:37.376Z,19.10
2018-09-29T12:50:09.092Z,19.27
2018-09-29T12:52:38.278Z,19.20
2018-09-29T12:55:15.887Z,19.37
2018-09-29T12:57:40.651Z,19.38
2018-09-29T13:00:12.478Z,19.36
2018-09-29T13:02:41.792Z,19.51
2018-09-29T13:05:11.200Z,19.28
2018-09-29T13:07:40.211Z,19.17
2018-09-29T13:10:09.459Z,19.31
2018-09-29T13:12:38.774Z,19.39
2018-09-29T13:15:08.255Z,19.38
2018-09-29T13:17:40.449Z,19.21
2018-09-29T13:20:09.779Z,19.08
2018-09-29T13:22:41.641Z,19.00
2018-09-29T13:25:10.798Z,18.96
2018-09-29T13:27:39.922Z,18.89
2018-09-29T13:30:14.535Z,18.98
2018-09-29T13:32:43.835Z,18.95
2018-09-29T13:35:13.373Z,18.95
2018-09-29T13:37:42.505Z,18.90
2018-09-29T13:40:14.371Z,18.87
2018-09-29T13:42:45.958Z,18.82
2018-09-29T13:45:17.566Z,18.97
2018-09-29T13:47:52.141Z,18.91
2018-09-29T13:50:23.550Z,18.87
2018-09-29T13:52:55.064Z,18.75
2018-09-29T13:55:26.965Z,18.75
2018-09-29T13:57:58.779Z,18.58
2018-09-29T14:00:28.138Z,18.68
2018-09-29T14:02:57.246Z,18.61
2018-09-29T14:05:26.569Z,18.70
2018-09-29T14:07:55.683Z,18.52
2018-09-29T14:10:24.980Z,18.46
2018-09-29T14:12:54.446Z,18.44
2018-09-29T14:15:23.735Z,18.50
2018-09-29T14:17:53.925Z,18.43
2018-09-29T14:20:24.759Z,18.27
2018-09-29T14:22:53.807Z,18.26
2018-09-29T14:25:26.007Z,18.26
2018-09-29T14:27:57.701Z,18.26
2018-09-29T14:30:27.265Z,18.28
2018-09-29T14:32:56.420Z,18.20
2018-09-29T14:35:25.417Z,18.19
2018-09-29T14:37:54.678Z,18.21
2018-09-29T14:40:26.660Z,18.20
2018-09-29T14:42:58.601Z,18.41
2018-09-29T14:45:27.601Z,18.38
2018-09-29T14:47:56.714Z,18.36
2018-09-29T14:50:26.003Z,18.21
2018-09-29T14:52:58.261Z,18.20
2018-09-29T14:55:27.603Z,18.07
2018-09-29T14:57:56.751Z,18.05
2018-09-29T15:00:25.825Z,18.14
2018-09-29T15:02:57.231Z,18.26
2018-09-29T15:05:28.946Z,18.14
2018-09-29T15:08:03.051Z,18.00
2018-09-29T15:10:30.111Z,17.90
2018-09-29T15:13:02.304Z,17.93
2018-09-29T15:15:33.475Z,17.91
2018-09-29T15:18:02.669Z,17.91
2018-09-29T15:20:32.548Z,17.85
2018-09-29T15:23:04.475Z,17.73
2018-09-29T15:25:36.150Z,17.75
2018-09-29T15:28:05.514Z,17.78
2018-09-29T15:30:34.638Z,17.66
2018-09-29T15:33:04.170Z,17.53
2018-09-29T15:35:35.577Z,17.51
2018-09-29T15:38:04.255Z,17.48
2018-09-29T15:40:33.464Z,17.24
2018-09-29T15:43:02.595Z,17.24
2018-09-29T15:45:37.076Z,17.20
2018-09-29T15:48:06.723Z,17.00
2018-09-29T15:50:41.302Z,17.00
2018-09-29T15:53:10.512Z,17.00
2018-09-29T15:55:42.997Z,16.88
2018-09-29T15:58:12.370Z,16.87
2018-09-29T16:00:41.889Z,16.82
2018-09-29T16:03:13.899Z,16.76
2018-09-29T16:05:43.336Z,16.62
2018-09-29T16:08:20.467Z,16.49
2018-09-29T16:10:52.370Z,16.36
2018-09-29T16:13:27.441Z,16.21
2018-09-29T16:15:59.173Z,16.16
2018-09-29T16:18:28.527Z,16.09
2018-09-29T16:20:58.041Z,16.07
2018-09-29T16:23:27.794Z,15.99
2018-09-29T16:25:59.865Z,16.00
2018-09-29T16:28:28.972Z,15.89
2018-09-29T16:30:58.222Z,15.73
2018-09-29T16:33:27.390Z,15.61
2018-09-29T16:36:00.028Z,15.51
2018-09-29T16:38:32.431Z,15.46
2018-09-29T16:41:03.636Z,15.30
2018-09-29T16:43:33.009Z,15.20
2018-09-29T16:46:02.634Z,15.10
2018-09-29T16:48:32.432Z,15.30
2018-09-29T16:51:02.074Z,15.04
2018-09-29T16:53:31.494Z,14.98
2018-09-29T16:56:00.632Z,14.92
2018-09-29T16:58:36.044Z,14.82
2018-09-29T17:01:05.013Z,14.65
2018-09-29T17:03:34.844Z,14.57
2018-09-29T17:06:07.196Z,14.40
2018-09-29T17:08:37.776Z,14.24
2018-09-29T17:11:09.913Z,14.14
2018-09-29T17:13:40.953Z,14.34
2018-09-29T17:16:13.086Z,14.00
2018-09-29T17:18:44.096Z,13.88
2018-09-29T17:21:13.302Z,13.72
2018-09-29T17:23:42.508Z,13.62
2018-09-29T17:26:11.473Z,13.87
2018-09-29T17:28:40.868Z,13.57
2018-09-29T17:31:12.546Z,13.83
2018-09-29T17:33:41.916Z,13.52
2018-09-29T17:36:13.589Z,13.36
2018-09-29T17:38:42.890Z,13.28
2018-09-29T17:41:12.930Z,13.10
2018-09-29T17:43:42.370Z,12.98
2018-09-29T17:46:15.680Z,12.87
2018-09-29T17:48:45.189Z,12.88
2018-09-29T17:51:14.776Z,12.76
2018-09-29T17:53:44.119Z,12.71
2018-09-29T17:56:13.409Z,12.56
2018-09-29T17:58:42.485Z,12.53
2018-09-29T18:01:11.953Z,12.44
2018-09-29T18:03:43.421Z,12.34
2018-09-29T18:06:14.626Z,12.27
2018-09-29T18:08:43.837Z,12.24
2018-09-29T18:11:12.994Z,12.17
2018-09-29T18:13:42.109Z,12.13
2018-09-29T18:16:11.366Z,12.07
2018-09-29T18:18:40.495Z,11.97
2018-09-29T18:21:11.746Z,11.79
2018-09-29T18:23:44.172Z,11.65
2018-09-29T18:26:13.222Z,11.51
2018-09-29T18:28:42.295Z,11.44
2018-09-29T18:31:11.339Z,11.36
2018-09-29T18:33:40.120Z,11.24
2018-09-29T18:36:08.983Z,11.20
2018-09-29T18:38:38.060Z,11.13
2018-09-29T18:41:06.947Z,11.05
2018-09-29T18:43:35.814Z,11.06
2018-09-29T18:46:04.628Z,11.32
2018-09-29T18:48:33.509Z,10.98
2018-09-29T18:51:02.373Z,10.90
2018-09-29T18:53:31.198Z,10.81
2018-09-29T18:56:00.033Z,10.70
2018-09-29T18:58:28.882Z,10.63
2018-09-29T19:00:57.711Z,10.57
2018-09-29T19:03:26.576Z,10.84
2018-09-29T19:05:55.508Z,10.48
2018-09-29T19:08:24.477Z,10.36
2018-09-29T19:10:53.481Z,10.29
2018-09-29T19:13:22.359Z,10.32
2018-09-29T19:15:51.344Z,10.38
2018-09-29T19:18:20.155Z,10.39
2018-09-29T19:20:48.998Z,10.32
2018-09-29T19:23:17.832Z,10.26
2018-09-29T19:25:46.654Z,10.42
2018-09-29T19:28:15.512Z,10.16
2018-09-29T19:30:44.346Z,10.04
2018-09-29T19:33:13.164Z,9.93
2018-09-29T19:35:42.015Z,9.91
2018-09-29T19:38:10.894Z,9.84
2018-09-29T19:40:39.729Z,9.78
2018-09-29T19:43:08.600Z,9.79
2018-09-29T19:45:37.489Z,9.70
2018-09-29T19:48:06.355Z,9.72
2018-09-29T19:50:35.194Z,9.58
2018-09-29T19:53:03.991Z,9.50
2018-09-29T19:55:32.837Z,9.41
2018-09-29T19:58:01.657Z,9.37
2018-09-29T20:00:30.535Z,9.25
2018-09-29T20:02:59.383Z,9.23
2018-09-29T20:05:28.231Z,9.22
2018-09-29T20:07:57.072Z,9.22
2018-09-29T20:10:25.949Z,9.23
2018-09-29T20:12:54.789Z,9.20
2018-09-29T20:15:23.603Z,9.11
2018-09-29T20:17:52.476Z,9.03
2018-09-29T20:20:21.277Z,8.96
2018-09-29T20:22:50.149Z,8.85
2018-09-29T20:25:18.950Z,8.79
2018-09-29T20:27:47.776Z,8.77
2018-09-29T20:30:16.612Z,8.79
2018-09-29T20:32:45.429Z,8.80
2018-09-29T20:35:14.234Z,8.84
2018-09-29T20:37:43.082Z,8.86
2018-09-29T20:40:11.901Z,8.83
2018-09-29T20:42:40.735Z,8.80
2018-09-29T20:45:09.543Z,8.81
2018-09-29T20:47:38.365Z,8.90
2018-09-29T20:50:07.225Z,9.07
2018-09-29T20:52:36.045Z,8.89
2018-09-29T20:55:04.905Z,9.12
2018-09-29T20:57:33.801Z,8.85
2018-09-29T21:00:02.616Z,9.02
2018-09-29T21:02:31.465Z,8.71
2018-09-29T21:05:00.376Z,8.48
2018-09-29T21:07:29.203Z,8.77
2018-09-29T21:09:58.043Z,8.40
2018-09-29T21:12:26.857Z,8.37
2018-09-29T21:14:55.697Z,8.30
2018-09-29T21:17:24.530Z,8.13
2018-09-29T21:19:53.384Z,8.02
2018-09-29T21:22:22.218Z,8.01
2018-09-29T21:24:51.065Z,7.99
2018-09-29T21:27:19.884Z,8.01
2018-09-29T21:29:48.762Z,8.04
2018-09-29T21:32:17.592Z,8.02
2018-09-29T21:34:46.442Z,7.97
2018-09-29T21:37:15.285Z,7.88
2018-09-29T21:39:44.123Z,7.80
2018-09-29T21:42:12.967Z,7.76
2018-09-29T21:44:41.767Z,7.76
2018-09-29T21:47:10.585Z,7.90
2018-09-29T21:49:39.423Z,7.95
2018-09-29T21:52:08.290Z,7.95
2018-09-29T21:54:37.071Z,7.87
2018-09-29T21:57:06.150Z,7.73
2018-09-29T21:59:34.958Z,7.71
2018-09-29T22:02:03.799Z,7.61
2018-09-29T22:04:32.687Z,7.66
2018-09-29T22:07:01.466Z,7.68
2018-09-29T22:09:30.297Z,7.59
2018-09-29T22:11:59.117Z,7.55
2018-09-29T22:14:27.963Z,7.48
2018-09-29T22:16:56.784Z,7.32
2018-09-29T22:19:25.606Z,7.63
2018-09-29T22:21:54.446Z,7.45
2018-09-29T22:24:23.260Z,7.43
2018-09-29T22:26:52.124Z,7.34
2018-09-29T22:29:20.932Z,7.30
2018-09-29T22:31:49.781Z,7.20
2018-09-29T22:34:18.594Z,7.16
2018-09-29T22:36:47.512Z,7.11
2018-09-29T22:39:16.347Z,7.16
2018-09-29T22:41:45.161Z,7.04
2018-09-29T22:44:13.994Z,6.96
2018-09-29T22:46:42.828Z,7.30
2018-09-29T22:49:11.659Z,7.01
2018-09-29T22:51:40.492Z,7.00
2018-09-29T22:54:09.298Z,6.94
2018-09-29T22:56:38.167Z,6.88
2018-09-29T22:59:07.008Z,7.23
2018-09-29T23:01:35.824Z,7.01
2018-09-29T23:04:04.666Z,6.92
2018-09-29T23:06:33.486Z,6.83
2018-09-29T23:09:02.312Z,6.74
2018-09-29T23:11:31.230Z,6.70
2018-09-29T23:14:00.030Z,6.79
2018-09-29T23:16:28.852Z,6.80
2018-09-29T23:18:57.739Z,6.71
2018-09-29T23:21:26.521Z,6.71
2018-09-29T23:23:55.339Z,6.64
2018-09-29T23:26:24.186Z,6.63
2018-09-29T23:28:53.032Z,6.68
2018-09-29T23:31:21.853Z,6.65
2018-09-29T23:33:50.711Z,6.69
2018-09-29T23:36:19.543Z,6.97
2018-09-29T23:38:48.381Z,6.71
2018-09-29T23:41:17.180Z,6.69
2018-09-29T23:43:45.999Z,6.68
2018-09-29T23:46:14.834Z,6.61
2018-09-29T23:48:43.685Z,6.49
2018-09-29T23:51:12.522Z,6.42
2018-09-29T23:53:41.340Z,6.44
2018-09-29T23:56:10.172Z,6.48
2018-09-29T23:58:38.999Z,6.55
